sensor_id;sensor_type;location;lat;lon;timestamp;P1;durP1;ratioP1;P2;durP2;ratioP2
17441;SDS011;8838;50.144;8.176;2023-06-26T00:00:39;7.40;;;5.32;;
17441;SDS011;8838;50.144;8.176;2023-06-26T00:03:06;8.05;;;5.30;;
17441;SDS011;8838;50.144;8.176;2023-06-26T00:05:32;6.30;;;5.00;;
17441;SDS011;8838;50.144;8.176;2023-06-26T00:07:59;9.48;;;5.60;;
17441;SDS011;8838;50.144;8.176;2023-06-26T00:10:27;6.63;;;5.10;;
17441;SDS011;8838;50.144;8.176;2023-06-26T00:12:54;6.95;;;5.05;;
17441;SDS011;8838;50.144;8.176;2023-06-26T00:15:21;7.22;;;5.25;;
17441;SDS011;8838;50.144;8.176;2023-06-26T00:17:48;6.65;;;5.55;;
17441;SDS011;8838;50.144;8.176;2023-06-26T00:20:15;6.13;;;5.22;;
17441;SDS011;8838;50.144;8.176;2023-06-26T00:22:43;6.72;;;5.25;;
17441;SDS011;8838;50.144;8.176;2023-06-26T00:25:11;6.15;;;5.35;;
17441;SDS011;8838;50.144;8.176;2023-06-26T00:27:39;7.38;;;5.00;;
17441;SDS011;8838;50.144;8.176;2023-06-26T00:30:08;6.38;;;5.05;;
17441;SDS011;8838;50.144;8.176;2023-06-26T00:32:35;5.93;;;5.22;;
17441;SDS011;8838;50.144;8.176;2023-06-26T00:35:02;5.97;;;5.28;;
17441;SDS011;8838;50.144;8.176;2023-06-26T00:37:29;5.70;;;4.93;;
17441;SDS011;8838;50.144;8.176;2023-06-26T00:39:59;6.60;;;5.53;;
17441;SDS011;8838;50.144;8.176;2023-06-26T00:42:25;7.93;;;5.43;;
17441;SDS011;8838;50.144;8.176;2023-06-26T00:44:54;6.50;;;5.80;;
17441;SDS011;8838;50.144;8.176;2023-06-26T00:47:20;6.43;;;5.60;;
17441;SDS011;8838;50.144;8.176;2023-06-26T00:49:47;7.93;;;5.25;;
17441;SDS011;8838;50.144;8.176;2023-06-26T00:52:14;6.82;;;5.60;;
17441;SDS011;8838;50.144;8.176;2023-06-26T00:54:42;6.45;;;5.60;;
17441;SDS011;8838;50.144;8.176;2023-06-26T00:57:09;7.28;;;5.90;;
17441;SDS011;8838;50.144;8.176;2023-06-26T00:59:36;7.65;;;5.50;;
17441;SDS011;8838;50.144;8.176;2023-06-26T01:02:04;7.03;;;6.13;;
17441;SDS011;8838;50.144;8.176;2023-06-26T01:04:31;8.32;;;5.70;;
17441;SDS011;8838;50.144;8.176;2023-06-26T01:06:58;8.55;;;6.10;;
17441;SDS011;8838;50.144;8.176;2023-06-26T01:09:25;6.50;;;5.78;;
17441;SDS011;8838;50.144;8.176;2023-06-26T01:11:52;6.68;;;5.80;;
17441;SDS011;8838;50.144;8.176;2023-06-26T01:14:20;7.65;;;5.88;;
17441;SDS011;8838;50.144;8.176;2023-06-26T01:16:47;6.63;;;5.75;;
17441;SDS011;8838;50.144;8.176;2023-06-26T01:19:19;8.23;;;5.57;;
17441;SDS011;8838;50.144;8.176;2023-06-26T01:21:51;6.57;;;5.68;;
17441;SDS011;8838;50.144;8.176;2023-06-26T01:24:23;7.72;;;5.57;;
17441;SDS011;8838;50.144;8.176;2023-06-26T01:26:57;7.18;;;5.47;;
17441;SDS011;8838;50.144;8.176;2023-06-26T01:29:27;6.45;;;5.43;;
17441;SDS011;8838;50.144;8.176;2023-06-26T01:31:56;8.50;;;5.70;;
17441;SDS011;8838;50.144;8.176;2023-06-26T01:34:23;7.47;;;5.80;;
17441;SDS011;8838;50.144;8.176;2023-06-26T01:36:51;6.93;;;5.97;;
17441;SDS011;8838;50.144;8.176;2023-06-26T01:39:18;6.35;;;5.53;;
17441;SDS011;8838;50.144;8.176;2023-06-26T01:41:45;6.38;;;5.72;;
17441;SDS011;8838;50.144;8.176;2023-06-26T01:44:17;7.65;;;5.60;;
17441;SDS011;8838;50.144;8.176;2023-06-26T01:46:54;6.63;;;5.72;;
17441;SDS011;8838;50.144;8.176;2023-06-26T01:49:28;6.95;;;5.75;;
17441;SDS011;8838;50.144;8.176;2023-06-26T01:52:05;7.38;;;5.57;;
17441;SDS011;8838;50.144;8.176;2023-06-26T01:54:37;8.02;;;5.80;;
17441;SDS011;8838;50.144;8.176;2023-06-26T01:57:09;6.68;;;5.57;;
17441;SDS011;8838;50.144;8.176;2023-06-26T01:59:38;7.88;;;5.88;;
17441;SDS011;8838;50.144;8.176;2023-06-26T02:02:08;8.15;;;6.10;;
17441;SDS011;8838;50.144;8.176;2023-06-26T02:04:35;6.32;;;5.50;;
17441;SDS011;8838;50.144;8.176;2023-06-26T02:07:02;7.97;;;6.25;;
17441;SDS011;8838;50.144;8.176;2023-06-26T02:09:29;6.40;;;5.75;;
17441;SDS011;8838;50.144;8.176;2023-06-26T02:11:56;6.47;;;5.78;;
17441;SDS011;8838;50.144;8.176;2023-06-26T02:14:23;6.18;;;5.38;;
17441;SDS011;8838;50.144;8.176;2023-06-26T02:16:51;6.93;;;5.50;;
17441;SDS011;8838;50.144;8.176;2023-06-26T02:19:18;7.75;;;6.00;;
17441;SDS011;8838;50.144;8.176;2023-06-26T02:21:46;7.10;;;5.82;;
17441;SDS011;8838;50.144;8.176;2023-06-26T02:24:14;6.55;;;5.47;;
17441;SDS011;8838;50.144;8.176;2023-06-26T02:26:41;7.20;;;5.70;;
17441;SDS011;8838;50.144;8.176;2023-06-26T02:29:07;6.50;;;5.60;;
17441;SDS011;8838;50.144;8.176;2023-06-26T02:31:34;7.13;;;5.75;;
17441;SDS011;8838;50.144;8.176;2023-06-26T02:34:02;6.30;;;5.68;;
17441;SDS011;8838;50.144;8.176;2023-06-26T02:36:29;6.32;;;5.57;;
17441;SDS011;8838;50.144;8.176;2023-06-26T02:38:56;7.38;;;5.57;;
17441;SDS011;8838;50.144;8.176;2023-06-26T02:41:23;8.00;;;5.70;;
17441;SDS011;8838;50.144;8.176;2023-06-26T02:43:50;6.28;;;5.53;;
17441;SDS011;8838;50.144;8.176;2023-06-26T02:46:16;8.63;;;5.70;;
17441;SDS011;8838;50.144;8.176;2023-06-26T02:48:43;9.25;;;6.22;;
17441;SDS011;8838;50.144;8.176;2023-06-26T02:51:12;8.68;;;6.25;;
17441;SDS011;8838;50.144;8.176;2023-06-26T02:53:39;8.05;;;6.05;;
17441;SDS011;8838;50.144;8.176;2023-06-26T02:56:05;6.70;;;5.97;;
17441;SDS011;8838;50.144;8.176;2023-06-26T02:58:32;7.68;;;5.75;;
17441;SDS011;8838;50.144;8.176;2023-06-26T03:00:59;7.30;;;6.15;;
17441;SDS011;8838;50.144;8.176;2023-06-26T03:03:26;8.32;;;5.65;;
17441;SDS011;8838;50.144;8.176;2023-06-26T03:05:53;7.22;;;5.72;;
17441;SDS011;8838;50.144;8.176;2023-06-26T03:08:21;9.23;;;6.18;;
17441;SDS011;8838;50.144;8.176;2023-06-26T03:10:48;8.25;;;6.00;;
17441;SDS011;8838;50.144;8.176;2023-06-26T03:13:15;7.68;;;5.60;;
17441;SDS011;8838;50.144;8.176;2023-06-26T03:15:43;7.57;;;5.70;;
17441;SDS011;8838;50.144;8.176;2023-06-26T03:18:09;7.72;;;5.80;;
17441;SDS011;8838;50.144;8.176;2023-06-26T03:20:36;9.88;;;6.07;;
17441;SDS011;8838;50.144;8.176;2023-06-26T03:23:03;8.18;;;6.15;;
17441;SDS011;8838;50.144;8.176;2023-06-26T03:25:31;8.70;;;6.38;;
17441;SDS011;8838;50.144;8.176;2023-06-26T03:27:58;6.70;;;5.90;;
17441;SDS011;8838;50.144;8.176;2023-06-26T03:30:25;6.57;;;5.82;;
17441;SDS011;8838;50.144;8.176;2023-06-26T03:32:52;7.22;;;5.50;;
17441;SDS011;8838;50.144;8.176;2023-06-26T03:35:19;7.97;;;5.65;;
17441;SDS011;8838;50.144;8.176;2023-06-26T03:37:45;6.65;;;5.78;;
17441;SDS011;8838;50.144;8.176;2023-06-26T03:40:12;7.80;;;5.70;;
17441;SDS011;8838;50.144;8.176;2023-06-26T03:42:40;7.10;;;6.22;;
17441;SDS011;8838;50.144;8.176;2023-06-26T03:45:08;8.82;;;5.80;;
17441;SDS011;8838;50.144;8.176;2023-06-26T03:47:35;8.07;;;6.30;;
17441;SDS011;8838;50.144;8.176;2023-06-26T03:50:01;8.80;;;6.03;;
17441;SDS011;8838;50.144;8.176;2023-06-26T03:52:30;7.47;;;5.93;;
17441;SDS011;8838;50.144;8.176;2023-06-26T03:54:57;8.25;;;5.88;;
17441;SDS011;8838;50.144;8.176;2023-06-26T03:57:24;9.48;;;5.80;;
17441;SDS011;8838;50.144;8.176;2023-06-26T03:59:52;8.07;;;6.05;;
17441;SDS011;8838;50.144;8.176;2023-06-26T04:02:21;7.40;;;6.13;;
17441;SDS011;8838;50.144;8.176;2023-06-26T04:04:48;7.57;;;5.82;;
17441;SDS011;8838;50.144;8.176;2023-06-26T04:07:14;6.70;;;5.80;;
17441;SDS011;8838;50.144;8.176;2023-06-26T04:09:41;9.40;;;5.93;;
17441;SDS011;8838;50.144;8.176;2023-06-26T04:12:08;8.25;;;5.70;;
17441;SDS011;8838;50.144;8.176;2023-06-26T04:14:35;7.85;;;6.15;;
17441;SDS011;8838;50.144;8.176;2023-06-26T04:17:03;7.28;;;5.97;;
17441;SDS011;8838;50.144;8.176;2023-06-26T04:19:31;7.95;;;6.15;;
17441;SDS011;8838;50.144;8.176;2023-06-26T04:21:57;7.30;;;5.88;;
17441;SDS011;8838;50.144;8.176;2023-06-26T04:24:24;7.80;;;6.10;;
17441;SDS011;8838;50.144;8.176;2023-06-26T04:26:51;8.75;;;6.22;;
17441;SDS011;8838;50.144;8.176;2023-06-26T04:29:18;7.75;;;5.47;;
17441;SDS011;8838;50.144;8.176;2023-06-26T04:31:46;9.15;;;5.95;;
17441;SDS011;8838;50.144;8.176;2023-06-26T04:34:14;10.07;;;6.07;;
17441;SDS011;8838;50.144;8.176;2023-06-26T04:36:41;9.57;;;5.80;;
17441;SDS011;8838;50.144;8.176;2023-06-26T04:39:12;7.55;;;5.65;;
17441;SDS011;8838;50.144;8.176;2023-06-26T04:41:39;8.98;;;6.18;;
17441;SDS011;8838;50.144;8.176;2023-06-26T04:44:06;6.82;;;5.88;;
17441;SDS011;8838;50.144;8.176;2023-06-26T04:46:33;7.85;;;6.75;;
17441;SDS011;8838;50.144;8.176;2023-06-26T04:49:00;11.50;;;6.05;;
17441;SDS011;8838;50.144;8.176;2023-06-26T04:51:29;7.40;;;5.88;;
17441;SDS011;8838;50.144;8.176;2023-06-26T04:53:56;7.75;;;6.18;;
17441;SDS011;8838;50.144;8.176;2023-06-26T04:56:23;8.27;;;6.10;;
17441;SDS011;8838;50.144;8.176;2023-06-26T04:58:49;9.30;;;5.80;;
17441;SDS011;8838;50.144;8.176;2023-06-26T05:01:18;8.18;;;5.78;;
17441;SDS011;8838;50.144;8.176;2023-06-26T05:03:45;6.93;;;5.85;;
17441;SDS011;8838;50.144;8.176;2023-06-26T05:06:12;7.85;;;5.70;;
17441;SDS011;8838;50.144;8.176;2023-06-26T05:08:41;8.27;;;5.97;;
17441;SDS011;8838;50.144;8.176;2023-06-26T05:11:08;7.30;;;5.60;;
17441;SDS011;8838;50.144;8.176;2023-06-26T05:13:34;8.15;;;5.85;;
17441;SDS011;8838;50.144;8.176;2023-06-26T05:16:01;8.38;;;5.53;;
17441;SDS011;8838;50.144;8.176;2023-06-26T05:18:28;7.15;;;5.20;;
17441;SDS011;8838;50.144;8.176;2023-06-26T05:20:55;6.60;;;5.68;;
17441;SDS011;8838;50.144;8.176;2023-06-26T05:23:22;7.57;;;5.57;;
17441;SDS011;8838;50.144;8.176;2023-06-26T05:25:53;9.38;;;5.60;;
17441;SDS011;8838;50.144;8.176;2023-06-26T05:28:21;7.90;;;5.60;;
17441;SDS011;8838;50.144;8.176;2023-06-26T05:30:49;8.60;;;5.68;;
17441;SDS011;8838;50.144;8.176;2023-06-26T05:33:17;6.85;;;5.60;;
17441;SDS011;8838;50.144;8.176;2023-06-26T05:35:45;7.35;;;5.70;;
17441;SDS011;8838;50.144;8.176;2023-06-26T05:38:12;6.57;;;5.57;;
17441;SDS011;8838;50.144;8.176;2023-06-26T05:40:40;8.93;;;5.43;;
17441;SDS011;8838;50.144;8.176;2023-06-26T05:43:09;6.65;;;5.45;;
17441;SDS011;8838;50.144;8.176;2023-06-26T05:45:36;5.45;;;4.90;;
17441;SDS011;8838;50.144;8.176;2023-06-26T05:48:03;6.28;;;5.32;;
17441;SDS011;8838;50.144;8.176;2023-06-26T05:50:31;6.82;;;5.25;;
17441;SDS011;8838;50.144;8.176;2023-06-26T05:52:58;6.63;;;5.63;;
17441;SDS011;8838;50.144;8.176;2023-06-26T05:55:26;6.28;;;5.47;;
17441;SDS011;8838;50.144;8.176;2023-06-26T05:57:53;7.25;;;5.18;;
17441;SDS011;8838;50.144;8.176;2023-06-26T06:00:23;8.65;;;5.78;;
17441;SDS011;8838;50.144;8.176;2023-06-26T06:02:53;8.00;;;5.00;;
17441;SDS011;8838;50.144;8.176;2023-06-26T06:05:20;6.38;;;5.47;;
17441;SDS011;8838;50.144;8.176;2023-06-26T06:07:47;6.88;;;5.35;;
17441;SDS011;8838;50.144;8.176;2023-06-26T06:10:14;7.15;;;5.45;;
17441;SDS011;8838;50.144;8.176;2023-06-26T06:12:41;6.85;;;5.30;;
17441;SDS011;8838;50.144;8.176;2023-06-26T06:15:08;7.47;;;5.80;;
17441;SDS011;8838;50.144;8.176;2023-06-26T06:17:36;7.38;;;5.20;;
17441;SDS011;8838;50.144;8.176;2023-06-26T06:20:03;8.30;;;5.75;;
17441;SDS011;8838;50.144;8.176;2023-06-26T06:22:31;7.20;;;5.50;;
17441;SDS011;8838;50.144;8.176;2023-06-26T06:24:58;11.50;;;6.03;;
17441;SDS011;8838;50.144;8.176;2023-06-26T06:27:26;9.60;;;5.40;;
17441;SDS011;8838;50.144;8.176;2023-06-26T06:29:53;6.35;;;5.10;;
17441;SDS011;8838;50.144;8.176;2023-06-26T06:32:20;6.40;;;5.32;;
17441;SDS011;8838;50.144;8.176;2023-06-26T06:34:48;6.30;;;5.38;;
17441;SDS011;8838;50.144;8.176;2023-06-26T06:37:15;6.07;;;5.38;;
17441;SDS011;8838;50.144;8.176;2023-06-26T06:39:45;7.45;;;5.43;;
17441;SDS011;8838;50.144;8.176;2023-06-26T06:42:12;6.60;;;5.25;;
17441;SDS011;8838;50.144;8.176;2023-06-26T06:44:38;7.00;;;6.20;;
17441;SDS011;8838;50.144;8.176;2023-06-26T06:47:05;6.55;;;5.50;;
17441;SDS011;8838;50.144;8.176;2023-06-26T06:49:32;6.35;;;5.22;;
17441;SDS011;8838;50.144;8.176;2023-06-26T06:52:00;6.13;;;5.18;;
17441;SDS011;8838;50.144;8.176;2023-06-26T06:54:27;9.18;;;5.60;;
17441;SDS011;8838;50.144;8.176;2023-06-26T06:56:54;7.78;;;5.18;;
17441;SDS011;8838;50.144;8.176;2023-06-26T06:59:21;6.80;;;4.93;;
17441;SDS011;8838;50.144;8.176;2023-06-26T07:01:48;9.70;;;4.95;;
17441;SDS011;8838;50.144;8.176;2023-06-26T07:04:14;13.07;;;5.10;;
17441;SDS011;8838;50.144;8.176;2023-06-26T07:06:41;7.25;;;5.20;;
17441;SDS011;8838;50.144;8.176;2023-06-26T07:09:09;6.28;;;5.00;;
17441;SDS011;8838;50.144;8.176;2023-06-26T07:11:36;5.97;;;5.03;;
17441;SDS011;8838;50.144;8.176;2023-06-26T07:14:03;7.40;;;5.30;;
17441;SDS011;8838;50.144;8.176;2023-06-26T07:16:30;7.47;;;5.03;;
17441;SDS011;8838;50.144;8.176;2023-06-26T07:18:57;6.07;;;5.38;;
17441;SDS011;8838;50.144;8.176;2023-06-26T07:21:23;6.55;;;5.05;;
17441;SDS011;8838;50.144;8.176;2023-06-26T07:23:50;6.50;;;4.90;;
17441;SDS011;8838;50.144;8.176;2023-06-26T07:26:18;6.65;;;4.97;;
17441;SDS011;8838;50.144;8.176;2023-06-26T07:28:47;6.70;;;5.22;;
17441;SDS011;8838;50.144;8.176;2023-06-26T07:31:14;7.15;;;5.18;;
17441;SDS011;8838;50.144;8.176;2023-06-26T07:33:41;6.85;;;5.15;;
17441;SDS011;8838;50.144;8.176;2023-06-26T07:36:08;6.55;;;5.05;;
17441;SDS011;8838;50.144;8.176;2023-06-26T07:38:35;8.00;;;5.03;;
17441;SDS011;8838;50.144;8.176;2023-06-26T07:41:02;7.57;;;5.10;;
17441;SDS011;8838;50.144;8.176;2023-06-26T07:43:30;5.85;;;5.20;;
17441;SDS011;8838;50.144;8.176;2023-06-26T07:45:57;10.88;;;4.90;;
17441;SDS011;8838;50.144;8.176;2023-06-26T07:48:24;5.85;;;4.90;;
17441;SDS011;8838;50.144;8.176;2023-06-26T07:50:51;8.10;;;5.28;;
17441;SDS011;8838;50.144;8.176;2023-06-26T07:53:19;5.80;;;5.25;;
17441;SDS011;8838;50.144;8.176;2023-06-26T07:55:45;8.30;;;5.10;;
17441;SDS011;8838;50.144;8.176;2023-06-26T07:58:12;7.57;;;5.38;;
17441;SDS011;8838;50.144;8.176;2023-06-26T08:00:42;5.95;;;5.18;;
17441;SDS011;8838;50.144;8.176;2023-06-26T08:03:09;9.27;;;5.40;;
17441;SDS011;8838;50.144;8.176;2023-06-26T08:05:36;5.13;;;4.57;;
17441;SDS011;8838;50.144;8.176;2023-06-26T08:08:03;6.25;;;4.97;;
17441;SDS011;8838;50.144;8.176;2023-06-26T08:10:31;7.68;;;5.15;;
17441;SDS011;8838;50.144;8.176;2023-06-26T08:12:59;5.95;;;4.63;;
17441;SDS011;8838;50.144;8.176;2023-06-26T08:15:26;5.28;;;4.78;;
17441;SDS011;8838;50.144;8.176;2023-06-26T08:17:54;7.88;;;5.22;;
17441;SDS011;8838;50.144;8.176;2023-06-26T08:20:21;8.50;;;5.18;;
17441;SDS011;8838;50.144;8.176;2023-06-26T08:22:48;8.38;;;5.03;;
17441;SDS011;8838;50.144;8.176;2023-06-26T08:25:16;6.05;;;4.78;;
17441;SDS011;8838;50.144;8.176;2023-06-26T08:27:43;7.88;;;5.20;;
17441;SDS011;8838;50.144;8.176;2023-06-26T08:30:10;6.25;;;4.95;;
17441;SDS011;8838;50.144;8.176;2023-06-26T08:32:38;8.27;;;4.85;;
17441;SDS011;8838;50.144;8.176;2023-06-26T08:35:07;5.97;;;4.97;;
17441;SDS011;8838;50.144;8.176;2023-06-26T08:37:35;9.45;;;5.00;;
17441;SDS011;8838;50.144;8.176;2023-06-26T08:40:02;8.35;;;5.20;;
17441;SDS011;8838;50.144;8.176;2023-06-26T08:42:30;7.93;;;5.13;;
17441;SDS011;8838;50.144;8.176;2023-06-26T08:44:58;7.03;;;5.50;;
17441;SDS011;8838;50.144;8.176;2023-06-26T08:47:25;6.00;;;5.40;;
17441;SDS011;8838;50.144;8.176;2023-06-26T08:49:53;12.25;;;5.80;;
17441;SDS011;8838;50.144;8.176;2023-06-26T08:52:28;9.52;;;5.35;;
17441;SDS011;8838;50.144;8.176;2023-06-26T08:54:59;6.28;;;5.43;;
17441;SDS011;8838;50.144;8.176;2023-06-26T08:57:28;7.07;;;5.25;;
17441;SDS011;8838;50.144;8.176;2023-06-26T08:59:58;8.88;;;5.40;;
17441;SDS011;8838;50.144;8.176;2023-06-26T09:02:25;6.72;;;5.75;;
17441;SDS011;8838;50.144;8.176;2023-06-26T09:04:52;6.35;;;4.75;;
17441;SDS011;8838;50.144;8.176;2023-06-26T09:07:19;5.57;;;4.90;;
17441;SDS011;8838;50.144;8.176;2023-06-26T09:09:47;13.45;;;5.05;;
17441;SDS011;8838;50.144;8.176;2023-06-26T09:12:14;10.77;;;5.13;;
17441;SDS011;8838;50.144;8.176;2023-06-26T09:14:42;7.18;;;4.47;;
17441;SDS011;8838;50.144;8.176;2023-06-26T09:17:09;6.18;;;4.72;;
17441;SDS011;8838;50.144;8.176;2023-06-26T09:19:36;8.75;;;4.72;;
17441;SDS011;8838;50.144;8.176;2023-06-26T09:22:05;6.32;;;4.78;;
17441;SDS011;8838;50.144;8.176;2023-06-26T09:24:41;6.78;;;4.68;;
17441;SDS011;8838;50.144;8.176;2023-06-26T09:27:10;8.30;;;4.70;;
17441;SDS011;8838;50.144;8.176;2023-06-26T09:29:37;5.93;;;4.03;;
17441;SDS011;8838;50.144;8.176;2023-06-26T09:32:07;8.70;;;4.72;;
17441;SDS011;8838;50.144;8.176;2023-06-26T09:34:34;5.75;;;4.88;;
17441;SDS011;8838;50.144;8.176;2023-06-26T09:37:01;6.47;;;4.38;;
17441;SDS011;8838;50.144;8.176;2023-06-26T09:39:30;5.47;;;4.53;;
17441;SDS011;8838;50.144;8.176;2023-06-26T09:41:58;9.32;;;4.50;;
17441;SDS011;8838;50.144;8.176;2023-06-26T09:44:28;5.22;;;4.18;;
17441;SDS011;8838;50.144;8.176;2023-06-26T09:46:57;6.47;;;4.47;;
17441;SDS011;8838;50.144;8.176;2023-06-26T09:49:24;8.13;;;4.57;;
17441;SDS011;8838;50.144;8.176;2023-06-26T09:51:51;5.88;;;4.40;;
17441;SDS011;8838;50.144;8.176;2023-06-26T09:54:19;7.05;;;4.50;;
17441;SDS011;8838;50.144;8.176;2023-06-26T09:56:48;6.72;;;4.68;;
17441;SDS011;8838;50.144;8.176;2023-06-26T09:59:15;5.68;;;4.55;;
17441;SDS011;8838;50.144;8.176;2023-06-26T10:01:45;7.50;;;4.70;;
17441;SDS011;8838;50.144;8.176;2023-06-26T10:04:12;5.35;;;4.70;;
17441;SDS011;8838;50.144;8.176;2023-06-26T10:06:41;8.30;;;4.45;;
17441;SDS011;8838;50.144;8.176;2023-06-26T10:09:12;11.45;;;4.85;;
17441;SDS011;8838;50.144;8.176;2023-06-26T10:11:41;5.97;;;4.82;;
17441;SDS011;8838;50.144;8.176;2023-06-26T10:14:13;5.70;;;4.57;;
17441;SDS011;8838;50.144;8.176;2023-06-26T10:16:41;7.75;;;5.10;;
17441;SDS011;8838;50.144;8.176;2023-06-26T10:19:10;7.53;;;5.13;;
17441;SDS011;8838;50.144;8.176;2023-06-26T10:21:39;8.35;;;4.80;;
17441;SDS011;8838;50.144;8.176;2023-06-26T10:24:07;10.00;;;4.88;;
17441;SDS011;8838;50.144;8.176;2023-06-26T10:26:37;6.80;;;4.65;;
17441;SDS011;8838;50.144;8.176;2023-06-26T10:29:09;6.95;;;4.40;;
17441;SDS011;8838;50.144;8.176;2023-06-26T10:31:37;6.38;;;4.40;;
17441;SDS011;8838;50.144;8.176;2023-06-26T10:34:11;7.05;;;4.60;;
17441;SDS011;8838;50.144;8.176;2023-06-26T10:36:39;9.95;;;5.00;;
17441;SDS011;8838;50.144;8.176;2023-06-26T10:39:06;6.40;;;4.40;;
17441;SDS011;8838;50.144;8.176;2023-06-26T10:41:36;5.93;;;4.13;;
17441;SDS011;8838;50.144;8.176;2023-06-26T10:44:08;7.65;;;4.10;;
17441;SDS011;8838;50.144;8.176;2023-06-26T10:46:48;4.88;;;3.80;;
17441;SDS011;8838;50.144;8.176;2023-06-26T10:49:19;6.30;;;4.47;;
17441;SDS011;8838;50.144;8.176;2023-06-26T10:51:46;7.18;;;4.80;;
17441;SDS011;8838;50.144;8.176;2023-06-26T10:54:14;5.85;;;4.88;;
17441;SDS011;8838;50.144;8.176;2023-06-26T10:56:42;8.50;;;5.05;;
17441;SDS011;8838;50.144;8.176;2023-06-26T10:59:11;12.02;;;5.10;;
17441;SDS011;8838;50.144;8.176;2023-06-26T11:01:40;7.30;;;4.88;;
17441;SDS011;8838;50.144;8.176;2023-06-26T11:04:07;7.25;;;5.10;;
17441;SDS011;8838;50.144;8.176;2023-06-26T11:06:37;8.52;;;4.75;;
17441;SDS011;8838;50.144;8.176;2023-06-26T11:09:08;8.68;;;4.65;;
17441;SDS011;8838;50.144;8.176;2023-06-26T11:11:55;5.43;;;4.72;;
17441;SDS011;8838;50.144;8.176;2023-06-26T11:14:27;7.43;;;4.50;;
17441;SDS011;8838;50.144;8.176;2023-06-26T11:16:54;11.27;;;5.20;;
17441;SDS011;8838;50.144;8.176;2023-06-26T11:19:22;6.07;;;5.05;;
17441;SDS011;8838;50.144;8.176;2023-06-26T11:21:52;7.35;;;4.60;;
17441;SDS011;8838;50.144;8.176;2023-06-26T11:24:25;8.50;;;4.60;;
17441;SDS011;8838;50.144;8.176;2023-06-26T11:26:54;5.07;;;4.57;;
17441;SDS011;8838;50.144;8.176;2023-06-26T11:29:27;8.60;;;5.25;;
17441;SDS011;8838;50.144;8.176;2023-06-26T11:31:58;12.52;;;5.32;;
17441;SDS011;8838;50.144;8.176;2023-06-26T11:34:34;8.00;;;4.95;;
17441;SDS011;8838;50.144;8.176;2023-06-26T11:37:04;9.40;;;4.80;;
17441;SDS011;8838;50.144;8.176;2023-06-26T11:39:31;7.07;;;5.00;;
17441;SDS011;8838;50.144;8.176;2023-06-26T11:41:58;8.20;;;5.38;;
17441;SDS011;8838;50.144;8.176;2023-06-26T11:44:30;6.93;;;5.20;;
17441;SDS011;8838;50.144;8.176;2023-06-26T11:47:00;8.32;;;5.40;;
17441;SDS011;8838;50.144;8.176;2023-06-26T11:49:26;11.85;;;5.75;;
17441;SDS011;8838;50.144;8.176;2023-06-26T11:51:54;9.30;;;5.20;;
17441;SDS011;8838;50.144;8.176;2023-06-26T11:54:26;7.45;;;4.88;;
17441;SDS011;8838;50.144;8.176;2023-06-26T11:56:54;8.98;;;4.85;;
17441;SDS011;8838;50.144;8.176;2023-06-26T11:59:26;7.32;;;4.65;;
17441;SDS011;8838;50.144;8.176;2023-06-26T12:01:59;5.47;;;4.63;;
17441;SDS011;8838;50.144;8.176;2023-06-26T12:04:29;7.93;;;4.68;;
17441;SDS011;8838;50.144;8.176;2023-06-26T12:06:56;6.78;;;5.25;;
17441;SDS011;8838;50.144;8.176;2023-06-26T12:09:23;7.25;;;4.60;;
17441;SDS011;8838;50.144;8.176;2023-06-26T12:11:53;6.95;;;5.28;;
17441;SDS011;8838;50.144;8.176;2023-06-26T12:14:23;10.88;;;4.97;;
17441;SDS011;8838;50.144;8.176;2023-06-26T12:16:53;12.85;;;4.97;;
17441;SDS011;8838;50.144;8.176;2023-06-26T12:19:24;8.23;;;4.97;;
17441;SDS011;8838;50.144;8.176;2023-06-26T12:21:52;5.25;;;4.45;;
17441;SDS011;8838;50.144;8.176;2023-06-26T12:24:21;7.40;;;5.03;;
17441;SDS011;8838;50.144;8.176;2023-06-26T12:26:51;7.60;;;4.80;;
17441;SDS011;8838;50.144;8.176;2023-06-26T12:29:21;9.73;;;5.15;;
17441;SDS011;8838;50.144;8.176;2023-06-26T12:31:54;6.07;;;4.20;;
17441;SDS011;8838;50.144;8.176;2023-06-26T12:34:26;8.38;;;4.70;;
17441;SDS011;8838;50.144;8.176;2023-06-26T12:36:59;8.20;;;4.57;;
17441;SDS011;8838;50.144;8.176;2023-06-26T12:39:27;9.57;;;4.28;;
17441;SDS011;8838;50.144;8.176;2023-06-26T12:41:56;8.43;;;4.50;;
17441;SDS011;8838;50.144;8.176;2023-06-26T12:44:26;5.65;;;3.78;;
17441;SDS011;8838;50.144;8.176;2023-06-26T12:46:55;8.18;;;3.92;;
17441;SDS011;8838;50.144;8.176;2023-06-26T12:49:29;5.35;;;3.78;;
17441;SDS011;8838;50.144;8.176;2023-06-26T12:51:57;11.90;;;3.58;;
17441;SDS011;8838;50.144;8.176;2023-06-26T12:54:24;7.00;;;3.90;;
17441;SDS011;8838;50.144;8.176;2023-06-26T12:56:51;5.75;;;3.80;;
17441;SDS011;8838;50.144;8.176;2023-06-26T12:59:19;6.10;;;3.53;;
17441;SDS011;8838;50.144;8.176;2023-06-26T13:01:46;10.38;;;3.58;;
17441;SDS011;8838;50.144;8.176;2023-06-26T13:04:13;8.10;;;3.33;;
17441;SDS011;8838;50.144;8.176;2023-06-26T13:06:40;10.38;;;3.97;;
17441;SDS011;8838;50.144;8.176;2023-06-26T13:09:06;7.20;;;3.70;;
17441;SDS011;8838;50.144;8.176;2023-06-26T13:11:33;6.45;;;3.30;;
17441;SDS011;8838;50.144;8.176;2023-06-26T13:14:01;9.60;;;3.22;;
17441;SDS011;8838;50.144;8.176;2023-06-26T13:16:29;5.60;;;3.40;;
17441;SDS011;8838;50.144;8.176;2023-06-26T13:18:57;8.20;;;3.20;;
17441;SDS011;8838;50.144;8.176;2023-06-26T13:21:24;6.65;;;3.10;;
17441;SDS011;8838;50.144;8.176;2023-06-26T13:23:51;5.90;;;3.10;;
17441;SDS011;8838;50.144;8.176;2023-06-26T13:26:18;7.22;;;3.10;;
17441;SDS011;8838;50.144;8.176;2023-06-26T13:28:46;7.60;;;2.90;;
17441;SDS011;8838;50.144;8.176;2023-06-26T13:31:13;6.40;;;2.60;;
17441;SDS011;8838;50.144;8.176;2023-06-26T13:33:41;8.90;;;3.00;;
17441;SDS011;8838;50.144;8.176;2023-06-26T13:36:09;10.32;;;2.80;;
17441;SDS011;8838;50.144;8.176;2023-06-26T13:38:36;6.47;;;2.78;;
17441;SDS011;8838;50.144;8.176;2023-06-26T13:41:03;6.32;;;2.58;;
17441;SDS011;8838;50.144;8.176;2023-06-26T13:43:30;6.93;;;2.55;;
17441;SDS011;8838;50.144;8.176;2023-06-26T13:45:57;8.15;;;3.00;;
17441;SDS011;8838;50.144;8.176;2023-06-26T13:48:24;7.72;;;2.92;;
17441;SDS011;8838;50.144;8.176;2023-06-26T13:50:52;6.40;;;2.45;;
17441;SDS011;8838;50.144;8.176;2023-06-26T13:53:19;7.15;;;2.35;;
17441;SDS011;8838;50.144;8.176;2023-06-26T13:55:49;7.72;;;2.30;;
17441;SDS011;8838;50.144;8.176;2023-06-26T13:58:15;7.28;;;2.60;;
17441;SDS011;8838;50.144;8.176;2023-06-26T14:00:47;5.72;;;2.45;;
17441;SDS011;8838;50.144;8.176;2023-06-26T14:03:17;6.35;;;2.40;;
17441;SDS011;8838;50.144;8.176;2023-06-26T14:05:44;8.60;;;2.30;;
17441;SDS011;8838;50.144;8.176;2023-06-26T14:08:12;5.45;;;1.95;;
17441;SDS011;8838;50.144;8.176;2023-06-26T14:10:39;5.47;;;2.33;;
17441;SDS011;8838;50.144;8.176;2023-06-26T14:13:06;5.18;;;2.10;;
17441;SDS011;8838;50.144;8.176;2023-06-26T14:15:34;5.88;;;2.33;;
17441;SDS011;8838;50.144;8.176;2023-06-26T14:18:01;5.22;;;2.38;;
17441;SDS011;8838;50.144;8.176;2023-06-26T14:20:29;5.82;;;2.10;;
17441;SDS011;8838;50.144;8.176;2023-06-26T14:22:58;7.45;;;2.10;;
17441;SDS011;8838;50.144;8.176;2023-06-26T14:25:26;5.90;;;1.75;;
17441;SDS011;8838;50.144;8.176;2023-06-26T14:27:54;4.82;;;1.92;;
17441;SDS011;8838;50.144;8.176;2023-06-26T14:30:21;7.18;;;2.13;;
17441;SDS011;8838;50.144;8.176;2023-06-26T14:32:48;5.97;;;2.15;;
17441;SDS011;8838;50.144;8.176;2023-06-26T14:35:17;8.32;;;1.83;;
17441;SDS011;8838;50.144;8.176;2023-06-26T14:37:44;4.47;;;2.15;;
17441;SDS011;8838;50.144;8.176;2023-06-26T14:40:11;7.43;;;2.08;;
17441;SDS011;8838;50.144;8.176;2023-06-26T14:42:40;6.70;;;2.13;;
17441;SDS011;8838;50.144;8.176;2023-06-26T14:45:08;7.88;;;1.90;;
17441;SDS011;8838;50.144;8.176;2023-06-26T14:47:36;8.05;;;1.98;;
17441;SDS011;8838;50.144;8.176;2023-06-26T14:50:03;4.55;;;1.83;;
17441;SDS011;8838;50.144;8.176;2023-06-26T14:52:51;9.38;;;1.70;;
17441;SDS011;8838;50.144;8.176;2023-06-26T14:55:18;5.22;;;2.15;;
17441;SDS011;8838;50.144;8.176;2023-06-26T14:57:46;4.20;;;1.75;;
17441;SDS011;8838;50.144;8.176;2023-06-26T15:00:14;3.67;;;1.90;;
17441;SDS011;8838;50.144;8.176;2023-06-26T15:02:41;4.50;;;1.73;;
17441;SDS011;8838;50.144;8.176;2023-06-26T15:05:08;8.25;;;1.92;;